createdAt,value
2023-05-04T00:00:20.170Z,91.99
2023-05-04T00:02:47.202Z,91.07
2023-05-04T00:05:14.102Z,90.83
2023-05-04T00:07:41.040Z,90.63
2023-05-04T00:10:08.458Z,90.17
2023-05-04T00:12:35.790Z,90.47
2023-05-04T00:15:02.853Z,91.89
2023-05-04T00:17:29.783Z,91.40
2023-05-04T00:19:56.826Z,91.82
2023-05-04T00:22:23.670Z,91.77
2023-05-04T00:24:50.526Z,91.89
2023-05-04T00:27:17.372Z,91.93
2023-05-04T00:29:44.260Z,91.43
2023-05-04T00:32:11.261Z,92.18
2023-05-04T00:34:38.084Z,91.45
2023-05-04T00:37:04.973Z,91.97
2023-05-04T00:39:31.866Z,92.38
2023-05-04T00:41:58.703Z,92.74
2023-05-04T00:44:25.554Z,93.40
2023-05-04T00:46:53.337Z,93.21
2023-05-04T00:49:21.840Z,93.38
2023-05-04T00:51:50.549Z,93.89
2023-05-04T00:54:20.755Z,93.73
2023-05-04T00:56:48.279Z,92.97
2023-05-04T00:59:15.160Z,93.12
2023-05-04T01:01:42.544Z,92.95
2023-05-04T01:04:09.913Z,93.19
2023-05-04T01:06:50.979Z,92.97
2023-05-04T01:09:47.542Z,92.90
2023-05-04T01:12:41.846Z,93.55
2023-05-04T01:15:13.187Z,93.94
2023-05-04T01:17:40.437Z,93.81
2023-05-04T01:20:09.652Z,93.23
2023-05-04T01:22:39.603Z,94.00
2023-05-04T01:25:08.054Z,94.09
2023-05-04T01:28:10.734Z,95.05
2023-05-04T01:30:44.835Z,94.25
2023-05-04T01:33:12.928Z,94.91
2023-05-04T01:35:40.221Z,94.77
2023-05-04T01:38:07.156Z,94.87
2023-05-04T01:40:34.298Z,95.77
2023-05-04T01:43:01.394Z,96.16
2023-05-04T01:45:28.232Z,95.93
2023-05-04T01:47:55.228Z,95.97
2023-05-04T01:50:22.191Z,96.34
2023-05-04T01:52:49.056Z,95.37
2023-05-04T01:55:16.020Z,95.18
2023-05-04T01:57:42.889Z,95.18
2023-05-04T02:00:10.542Z,95.79
2023-05-04T02:02:37.424Z,96.40
2023-05-04T02:05:04.633Z,96.38
2023-05-04T02:07:31.535Z,96.16
2023-05-04T02:09:58.380Z,95.17
2023-05-04T02:12:25.485Z,94.32
2023-05-04T02:14:52.295Z,94.00
2023-05-04T02:17:19.146Z,94.41
2023-05-04T02:19:45.987Z,95.78
2023-05-04T02:22:12.810Z,96.55
2023-05-04T02:24:40.999Z,96.27
2023-05-04T02:27:07.824Z,98.24
2023-05-04T02:29:34.633Z,99.17
2023-05-04T02:32:01.556Z,98.90
2023-05-04T02:34:28.455Z,99.01
2023-05-04T02:36:55.302Z,98.17
2023-05-04T02:39:22.452Z,98.24
2023-05-04T02:41:49.348Z,98.12
2023-05-04T02:44:16.210Z,98.29
2023-05-04T02:46:43.088Z,98.12
2023-05-04T02:49:09.910Z,97.40
2023-05-04T02:51:36.802Z,97.19
2023-05-04T02:54:03.800Z,97.14
2023-05-04T02:56:30.695Z,96.74
2023-05-04T02:58:57.538Z,96.56
2023-05-04T03:01:24.442Z,96.75
2023-05-04T03:03:51.390Z,97.25
2023-05-04T03:06:18.252Z,97.01
2023-05-04T03:08:45.099Z,96.85
2023-05-04T03:11:11.943Z,97.57
2023-05-04T03:13:38.757Z,97.92
2023-05-04T03:16:05.964Z,98.23
2023-05-04T03:18:38.570Z,98.16
2023-05-04T03:21:05.626Z,98.44
2023-05-04T03:23:32.489Z,99.24
2023-05-04T03:25:59.320Z,99.02
2023-05-04T03:28:26.160Z,99.21
2023-05-04T03:30:53.036Z,99.65
2023-05-04T03:33:19.872Z,98.80
2023-05-04T03:35:46.694Z,98.50
2023-05-04T03:38:13.724Z,98.14
2023-05-04T03:40:40.545Z,97.75
2023-05-04T03:43:07.489Z,97.81
2023-05-04T03:45:34.587Z,97.11
2023-05-04T03:48:01.428Z,97.61
2023-05-04T03:50:28.326Z,98.66
2023-05-04T03:52:55.225Z,98.15
2023-05-04T03:55:22.160Z,99.13
2023-05-04T03:57:48.974Z,99.09
2023-05-04T04:00:16.798Z,99.28
2023-05-04T04:02:43.769Z,100.00
2023-05-04T04:05:10.750Z,100.00
2023-05-04T04:07:37.585Z,100.00
2023-05-04T04:10:05.154Z,100.00
2023-05-04T04:12:32.310Z,100.00
2023-05-04T04:14:59.264Z,100.00
2023-05-04T04:17:26.151Z,100.00
2023-05-04T04:19:53.040Z,100.00
2023-05-04T04:22:19.862Z,100.00
2023-05-04T04:24:46.712Z,100.00
2023-05-04T04:27:13.777Z,100.00
2023-05-04T04:29:40.631Z,100.00
2023-05-04T04:32:07.451Z,100.00
2023-05-04T04:34:34.508Z,100.00
2023-05-04T04:37:01.333Z,100.00
2023-05-04T04:39:28.205Z,100.00
2023-05-04T04:41:55.107Z,100.00
2023-05-04T04:44:22.034Z,100.00
2023-05-04T04:46:49.496Z,100.00
2023-05-04T04:49:18.061Z,100.00
2023-05-04T04:51:45.018Z,100.00
2023-05-04T04:54:11.939Z,100.00
2023-05-04T04:56:41.946Z,100.00
2023-05-04T04:59:08.783Z,100.00
2023-05-04T05:01:35.665Z,100.00
2023-05-04T05:04:02.516Z,100.00
2023-05-04T05:06:29.395Z,100.00
2023-05-04T05:08:56.727Z,100.00
2023-05-04T05:11:23.614Z,100.00
2023-05-04T05:13:50.780Z,100.00
2023-05-04T05:16:17.716Z,100.00
2023-05-04T05:18:44.655Z,100.00
2023-05-04T05:21:11.605Z,100.00
2023-05-04T05:23:38.454Z,100.00
2023-05-04T05:26:05.350Z,100.00
2023-05-04T05:28:32.452Z,100.00
2023-05-04T05:30:59.431Z,100.00
2023-05-04T05:33:26.358Z,100.00
2023-05-04T05:35:53.210Z,100.00
2023-05-04T05:38:20.354Z,100.00
2023-05-04T05:40:48.881Z,100.00
2023-05-04T05:43:15.911Z,100.00
2023-05-04T05:45:42.810Z,100.00
2023-05-04T05:48:09.676Z,100.00
2023-05-04T05:50:36.517Z,100.00
2023-05-04T05:53:03.443Z,100.00
2023-05-04T05:55:30.279Z,100.00
2023-05-04T05:57:57.157Z,100.00
2023-05-04T06:00:24.876Z,100.00
2023-05-04T06:02:52.783Z,100.00
2023-05-04T06:05:19.770Z,100.00
2023-05-04T06:07:46.718Z,100.00
2023-05-04T06:10:13.948Z,100.00
2023-05-04T06:12:40.909Z,100.00
2023-05-04T06:15:09.501Z,100.00
2023-05-04T06:17:36.496Z,100.00
2023-05-04T06:20:03.869Z,100.00
2023-05-04T06:22:31.681Z,100.00
2023-05-04T06:25:02.724Z,100.00
2023-05-04T06:27:31.961Z,100.00
2023-05-04T06:29:58.915Z,100.00
2023-05-04T06:32:25.994Z,100.00
2023-05-04T06:34:55.636Z,100.00
2023-05-04T06:37:22.731Z,100.00
2023-05-04T06:39:49.612Z,100.00
2023-05-04T06:42:16.510Z,100.00
2023-05-04T06:44:43.535Z,100.00
2023-05-04T06:47:10.502Z,100.00
2023-05-04T06:49:37.363Z,100.00
2023-05-04T06:52:04.395Z,100.00
2023-05-04T06:54:32.094Z,100.00
2023-05-04T06:56:58.987Z,100.00
2023-05-04T06:59:25.863Z,100.00
2023-05-04T07:01:52.798Z,100.00
2023-05-04T07:04:23.554Z,100.00
2023-05-04T07:06:51.219Z,100.00
2023-05-04T07:09:21.341Z,100.00
2023-05-04T07:11:51.229Z,99.29
2023-05-04T07:14:18.083Z,97.10
2023-05-04T07:16:45.037Z,99.40
2023-05-04T07:19:12.055Z,97.43
2023-05-04T07:21:39.008Z,95.63
2023-05-04T07:24:07.223Z,92.69
2023-05-04T07:26:34.140Z,89.31
2023-05-04T07:29:01.193Z,89.91
2023-05-04T07:31:30.190Z,85.60
2023-05-04T07:33:57.669Z,82.69
2023-05-04T07:36:26.766Z,83.07
2023-05-04T07:38:54.682Z,85.12
2023-05-04T07:41:21.700Z,82.23
2023-05-04T07:43:48.564Z,82.95
2023-05-04T07:46:15.599Z,81.06
2023-05-04T07:48:42.442Z,78.98
2023-05-04T07:51:14.432Z,77.16
2023-05-04T07:53:42.668Z,78.09
2023-05-04T07:56:13.727Z,73.11
2023-05-04T07:58:41.577Z,71.97
2023-05-04T08:01:08.642Z,72.55
2023-05-04T08:03:35.598Z,69.55
2023-05-04T08:06:02.699Z,73.70
2023-05-04T08:08:29.727Z,70.40
2023-05-04T08:11:07.968Z,68.25
2023-05-04T08:13:46.511Z,66.50
2023-05-04T08:16:13.453Z,67.22
2023-05-04T08:18:40.367Z,64.64
2023-05-04T08:21:07.247Z,63.47
2023-05-04T08:23:34.148Z,63.79
2023-05-04T08:26:05.035Z,61.78
2023-05-04T08:28:39.708Z,61.96
2023-05-04T08:31:06.842Z,61.06
2023-05-04T08:33:34.637Z,59.33
2023-05-04T08:36:03.041Z,61.27
2023-05-04T08:38:30.247Z,60.43
2023-05-04T08:40:57.797Z,58.11
2023-05-04T08:43:24.794Z,58.09
2023-05-04T08:45:51.792Z,57.13
2023-05-04T08:48:19.125Z,56.68
2023-05-04T08:50:46.316Z,56.83
2023-05-04T08:53:14.625Z,56.78
2023-05-04T08:55:43.573Z,57.60
2023-05-04T08:58:14.622Z,53.53
2023-05-04T09:00:44.187Z,55.81
2023-05-04T09:03:12.243Z,52.44
2023-05-04T09:05:41.702Z,53.78
2023-05-04T09:08:08.753Z,55.14
2023-05-04T09:10:35.647Z,52.80
2023-05-04T09:13:02.716Z,52.33
2023-05-04T09:15:29.705Z,52.83
2023-05-04T09:18:01.524Z,53.60
2023-05-04T09:20:28.665Z,52.52
2023-05-04T09:23:07.695Z,51.59
2023-05-04T09:25:47.589Z,51.35
2023-05-04T09:28:15.740Z,51.24
2023-05-04T09:30:43.300Z,52.67
2023-05-04T09:33:13.898Z,51.39
2023-05-04T09:35:44.659Z,50.06
2023-05-04T09:38:11.536Z,49.53
2023-05-04T09:40:41.689Z,49.66
2023-05-04T09:43:09.613Z,49.86
2023-05-04T09:45:44.728Z,49.22
2023-05-04T09:48:25.673Z,49.68
2023-05-04T09:50:54.744Z,50.36
2023-05-04T09:53:29.689Z,50.99
2023-05-04T09:56:02.178Z,50.11
2023-05-04T09:58:31.648Z,50.96
2023-05-04T10:01:01.585Z,51.64
2023-05-04T10:03:29.365Z,51.58
2023-05-04T10:06:00.041Z,50.81
2023-05-04T10:08:29.107Z,51.35
2023-05-04T10:10:57.225Z,50.80
2023-05-04T10:13:25.336Z,48.70
2023-05-04T10:16:01.477Z,49.38
2023-05-04T10:19:20.916Z,49.27
2023-05-04T10:22:33.683Z,48.73
2023-05-04T10:25:36.548Z,51.81
2023-05-04T10:28:25.594Z,49.11
2023-05-04T10:30:59.107Z,47.56
2023-05-04T10:33:26.975Z,48.69
2023-05-04T10:35:56.707Z,48.58
2023-05-04T10:38:37.183Z,48.06
2023-05-04T10:41:18.607Z,49.45
2023-05-04T10:43:51.120Z,47.34
2023-05-04T10:46:22.075Z,47.56
2023-05-04T10:48:50.412Z,43.49
2023-05-04T10:51:22.861Z,41.60
2023-05-04T10:53:50.934Z,42.72
2023-05-04T10:56:28.534Z,43.24
2023-05-04T10:58:55.896Z,42.68
2023-05-04T11:01:23.176Z,42.08
2023-05-04T11:03:51.931Z,41.86
2023-05-04T11:06:24.042Z,41.84
2023-05-04T11:09:06.534Z,42.37
2023-05-04T11:11:37.763Z,41.99
2023-05-04T11:14:04.694Z,42.77
2023-05-04T11:16:31.732Z,42.77
2023-05-04T11:19:09.776Z,42.63
2023-05-04T11:21:38.952Z,42.93
2023-05-04T11:24:06.239Z,42.28
2023-05-04T11:26:33.523Z,39.93
2023-05-04T11:29:00.475Z,40.51
2023-05-04T11:31:27.403Z,39.45
2023-05-04T11:33:55.268Z,39.47
2023-05-04T11:36:22.904Z,39.89
2023-05-04T11:38:50.342Z,39.45
2023-05-04T11:41:17.377Z,39.42
2023-05-04T11:43:45.490Z,40.09
2023-05-04T11:46:13.366Z,39.81
2023-05-04T11:48:41.133Z,39.32
2023-05-04T11:51:08.093Z,39.60
2023-05-04T11:53:39.633Z,37.40
2023-05-04T11:56:11.297Z,38.13
2023-05-04T11:58:38.209Z,38.22
2023-05-04T12:01:05.497Z,38.08
2023-05-04T12:06:04.893Z,38.55
2023-05-04T12:08:42.194Z,37.47
2023-05-04T12:11:21.903Z,37.63
2023-05-04T12:13:50.035Z,36.98
2023-05-04T12:16:19.604Z,37.47
2023-05-04T12:18:48.235Z,37.41
2023-05-04T12:21:19.708Z,36.29
2023-05-04T12:23:47.655Z,36.10
2023-05-04T12:26:18.821Z,36.76
2023-05-04T12:28:47.982Z,34.80
2023-05-04T12:31:15.134Z,34.68
2023-05-04T12:33:41.972Z,33.44
2023-05-04T12:36:10.409Z,33.62
2023-05-04T12:38:40.578Z,33.39
2023-05-04T12:41:11.022Z,33.27
2023-05-04T12:43:38.613Z,33.56
2023-05-04T12:46:05.653Z,32.27
2023-05-04T12:48:33.183Z,32.74
2023-05-04T12:51:01.468Z,31.86
2023-05-04T12:53:32.089Z,31.61
2023-05-04T12:56:00.848Z,32.52
2023-05-04T12:58:28.502Z,31.22
2023-05-04T13:00:56.760Z,31.52
2023-05-04T13:03:24.321Z,29.79
2023-05-04T13:05:51.441Z,31.18
2023-05-04T13:08:19.973Z,31.46
2023-05-04T13:10:47.416Z,30.48
2023-05-04T13:13:17.339Z,29.84
2023-05-04T13:15:44.967Z,29.44
2023-05-04T13:18:13.061Z,29.18
2023-05-04T13:20:40.768Z,30.06
2023-05-04T13:23:07.727Z,29.57
2023-05-04T13:25:34.603Z,30.64
2023-05-04T13:28:01.545Z,29.77
2023-05-04T13:30:29.193Z,28.94
2023-05-04T13:32:56.201Z,28.82
2023-05-04T13:35:24.078Z,27.00
2023-05-04T13:37:51.682Z,26.91
2023-05-04T13:40:18.748Z,27.78
2023-05-04T13:42:45.719Z,27.96
2023-05-04T13:45:13.378Z,28.79
2023-05-04T13:47:40.854Z,27.27
2023-05-04T13:50:08.454Z,26.05
2023-05-04T13:52:36.349Z,27.90
2023-05-04T13:55:03.633Z,27.99
2023-05-04T13:57:30.969Z,27.12
2023-05-04T14:00:07.066Z,26.58
2023-05-04T14:02:35.336Z,27.03
2023-05-04T14:05:04.477Z,26.12
2023-05-04T14:07:31.767Z,26.77
2023-05-04T14:10:01.940Z,25.84
2023-05-04T14:12:29.101Z,26.69
2023-05-04T14:14:56.131Z,26.07
2023-05-04T14:17:23.115Z,28.16
2023-05-04T14:19:49.941Z,25.76
2023-05-04T14:22:16.865Z,25.03
2023-05-04T14:24:43.783Z,25.80
2023-05-04T14:27:10.798Z,26.47
2023-05-04T14:29:37.625Z,26.73
2023-05-04T14:32:04.654Z,26.53
2023-05-04T14:34:32.764Z,25.41
2023-05-04T14:36:59.609Z,25.83
2023-05-04T14:39:26.703Z,25.82
2023-05-04T14:41:54.178Z,26.73
2023-05-04T14:44:22.821Z,27.01
2023-05-04T14:46:49.768Z,26.12
2023-05-04T14:49:32.571Z,26.14
2023-05-04T14:52:04.056Z,27.52
2023-05-04T14:54:31.026Z,27.94
2023-05-04T14:56:59.174Z,27.49
2023-05-04T14:59:26.436Z,27.15
2023-05-04T15:01:55.394Z,26.98
2023-05-04T15:04:22.703Z,26.54
2023-05-04T15:06:49.938Z,26.82
2023-05-04T15:09:16.959Z,26.28
2023-05-04T15:12:59.535Z,26.43
2023-05-04T15:15:26.545Z,27.09
2023-05-04T15:17:53.608Z,27.30
2023-05-04T15:20:20.632Z,26.33
2023-05-04T15:22:49.139Z,25.95
2023-05-04T15:25:16.016Z,25.54
2023-05-04T15:27:44.030Z,26.06
2023-05-04T15:30:11.880Z,26.26
2023-05-04T15:32:38.835Z,27.11
2023-05-04T15:35:06.572Z,26.74
2023-05-04T15:37:33.913Z,26.84
2023-05-04T15:40:02.462Z,27.66
2023-05-04T15:42:29.818Z,27.24
2023-05-04T15:44:56.814Z,28.48
2023-05-04T15:47:24.021Z,27.92
2023-05-04T15:49:50.926Z,28.26
2023-05-04T15:52:17.765Z,28.82
2023-05-04T15:54:44.591Z,29.30
2023-05-04T15:57:11.636Z,29.05
2023-05-04T15:59:38.676Z,29.30
2023-05-04T16:02:06.261Z,28.91
2023-05-04T16:04:33.500Z,30.13
2023-05-04T16:07:00.482Z,30.52
2023-05-04T16:09:28.426Z,29.68
2023-05-04T16:11:55.329Z,29.93
2023-05-04T16:14:22.292Z,30.04
2023-05-04T16:16:49.216Z,29.85
2023-05-04T16:19:16.238Z,29.87
2023-05-04T16:21:43.131Z,29.91
2023-05-04T16:24:10.328Z,30.59
2023-05-04T16:26:37.192Z,30.44
2023-05-04T16:29:04.129Z,31.28
2023-05-04T16:31:31.120Z,31.45
2023-05-04T16:33:58.238Z,31.54
2023-05-04T16:36:25.082Z,31.43
2023-05-04T16:38:52.418Z,31.37
2023-05-04T16:41:19.311Z,31.60
2023-05-04T16:43:46.339Z,31.89
2023-05-04T16:46:13.208Z,32.07
2023-05-04T16:48:40.314Z,32.17
2023-05-04T16:51:08.447Z,32.31
2023-05-04T16:53:35.796Z,33.18
2023-05-04T16:56:02.807Z,32.96
2023-05-04T16:58:29.713Z,32.87
2023-05-04T17:00:58.405Z,32.70
2023-05-04T17:03:25.434Z,33.63
2023-05-04T17:05:52.924Z,34.27
2023-05-04T17:08:19.879Z,33.63
2023-05-04T17:10:46.733Z,33.65
2023-05-04T17:13:13.808Z,33.89
2023-05-04T17:15:40.776Z,34.06
2023-05-04T17:18:07.766Z,35.03
2023-05-04T17:20:34.641Z,34.65
2023-05-04T17:23:01.949Z,34.98
2023-05-04T17:25:29.102Z,34.89
2023-05-04T17:27:55.999Z,36.18
2023-05-04T17:30:23.349Z,36.43
2023-05-04T17:32:51.333Z,35.73
2023-05-04T17:35:25.218Z,36.53
2023-05-04T17:37:57.899Z,36.11
2023-05-04T17:40:27.705Z,35.78
2023-05-04T17:42:55.139Z,36.94
2023-05-04T17:45:22.183Z,37.81
2023-05-04T17:47:51.362Z,36.62
2023-05-04T17:50:18.463Z,36.64
2023-05-04T17:52:45.278Z,36.76
2023-05-04T17:55:12.312Z,37.92
2023-05-04T17:57:39.183Z,38.22
2023-05-04T18:00:07.804Z,37.62
2023-05-04T18:02:35.171Z,38.07
2023-05-04T18:05:03.130Z,37.71
2023-05-04T18:07:30.050Z,39.00
2023-05-04T18:09:57.055Z,38.97
2023-05-04T18:12:23.972Z,39.62
2023-05-04T18:14:51.447Z,39.70
2023-05-04T18:17:18.363Z,42.11
2023-05-04T18:19:45.202Z,42.69
2023-05-04T18:22:12.126Z,41.78
2023-05-04T18:24:39.019Z,43.38
2023-05-04T18:27:06.258Z,43.58
2023-05-04T18:29:33.169Z,44.05
2023-05-04T18:32:01.498Z,44.91
2023-05-04T18:34:28.466Z,45.39
2023-05-04T18:36:55.338Z,45.71
2023-05-04T18:39:22.220Z,45.75
2023-05-04T18:41:49.323Z,46.82
2023-05-04T18:44:16.420Z,47.58
2023-05-04T18:46:43.415Z,47.79
2023-05-04T18:49:10.298Z,48.29
2023-05-04T18:51:37.186Z,49.53
2023-05-04T18:54:04.385Z,49.61
2023-05-04T18:56:31.378Z,50.13
2023-05-04T18:58:58.285Z,50.82
2023-05-04T19:01:25.244Z,51.23
2023-05-04T19:03:52.283Z,51.77
2023-05-04T19:06:19.248Z,51.48
2023-05-04T19:08:46.089Z,51.49
2023-05-04T19:11:13.308Z,51.57
2023-05-04T19:13:40.183Z,52.29
2023-05-04T19:16:12.250Z,52.86
2023-05-04T19:18:39.309Z,53.11
2023-05-04T19:21:06.730Z,53.76
2023-05-04T19:23:33.585Z,53.86
2023-05-04T19:26:00.497Z,54.26
2023-05-04T19:28:27.381Z,54.74
2023-05-04T19:30:54.360Z,55.29
2023-05-04T19:33:22.290Z,56.25
2023-05-04T19:35:50.198Z,58.01
2023-05-04T19:38:17.558Z,60.39
2023-05-04T19:40:44.399Z,60.76
2023-05-04T19:43:11.296Z,61.14
2023-05-04T19:45:39.338Z,61.77
2023-05-04T19:48:06.297Z,63.24
2023-05-04T19:50:33.392Z,64.66
2023-05-04T19:53:00.212Z,64.09
2023-05-04T19:55:27.169Z,63.98
2023-05-04T19:57:54.035Z,64.41
2023-05-04T20:00:20.967Z,65.19
2023-05-04T20:02:47.940Z,64.78
2023-05-04T20:05:14.969Z,64.48
2023-05-04T20:07:42.170Z,65.57
2023-05-04T20:10:09.437Z,66.78
2023-05-04T20:12:36.505Z,67.41
2023-05-04T20:15:06.618Z,67.95
2023-05-04T20:17:33.582Z,68.08
2023-05-04T20:20:02.603Z,69.20
2023-05-04T20:22:29.786Z,69.73
2023-05-04T20:24:57.230Z,69.26
2023-05-04T20:27:27.012Z,70.37
2023-05-04T20:29:53.865Z,69.96
2023-05-04T20:32:20.887Z,69.54
2023-05-04T20:34:47.922Z,69.94
2023-05-04T20:37:14.964Z,70.89
2023-05-04T20:39:41.900Z,71.50
2023-05-04T20:42:08.754Z,70.61
2023-05-04T20:44:35.626Z,70.04
2023-05-04T20:47:02.752Z,72.12
2023-05-04T20:49:29.660Z,74.33
2023-05-04T20:51:56.508Z,74.26
2023-05-04T20:54:24.317Z,73.56
2023-05-04T20:56:51.191Z,73.91
2023-05-04T20:59:18.079Z,73.70
2023-05-04T21:01:45.071Z,74.12
2023-05-04T21:04:12.059Z,75.55
2023-05-04T21:06:38.896Z,76.00
2023-05-04T21:09:05.850Z,75.74
2023-05-04T21:11:32.718Z,74.80
2023-05-04T21:13:59.650Z,74.68
2023-05-04T21:16:26.570Z,76.51
2023-05-04T21:18:53.405Z,77.19
2023-05-04T21:21:20.225Z,77.73
2023-05-04T21:23:47.078Z,76.59
2023-05-04T21:26:13.971Z,77.02
2023-05-04T21:28:40.899Z,76.92
2023-05-04T21:31:08.620Z,78.64
2023-05-04T21:33:36.395Z,78.36
2023-05-04T21:36:14.337Z,77.67
2023-05-04T21:38:41.695Z,77.24
2023-05-04T21:41:16.180Z,79.63
2023-05-04T21:43:43.804Z,80.73
2023-05-04T21:46:12.206Z,81.35
2023-05-04T21:48:39.968Z,81.30
2023-05-04T21:51:06.907Z,81.53
2023-05-04T21:53:33.937Z,83.11
2023-05-04T21:56:08.539Z,83.31
2023-05-04T21:58:37.460Z,84.46
2023-05-04T22:01:04.313Z,84.77
2023-05-04T22:03:31.944Z,83.80
2023-05-04T22:05:59.131Z,84.77
2023-05-04T22:08:27.021Z,84.58
2023-05-04T22:10:56.214Z,84.38
2023-05-04T22:13:23.419Z,84.52
2023-05-04T22:15:50.979Z,83.83
2023-05-04T22:18:18.263Z,84.65
2023-05-04T22:20:45.582Z,83.30
2023-05-04T22:23:13.433Z,83.72
2023-05-04T22:25:40.344Z,84.48
2023-05-04T22:28:07.351Z,83.74
2023-05-04T22:30:34.384Z,85.35
2023-05-04T22:33:01.579Z,85.76
2023-05-04T22:35:28.458Z,86.26
2023-05-04T22:37:55.381Z,84.80
2023-05-04T22:40:22.674Z,85.84
2023-05-04T22:42:49.609Z,85.91
2023-05-04T22:45:18.421Z,87.44
2023-05-04T22:47:47.030Z,87.38
2023-05-04T22:50:15.027Z,87.46
2023-05-04T22:52:42.099Z,87.77
2023-05-04T22:55:09.536Z,88.13
2023-05-04T22:57:36.920Z,87.92
2023-05-04T23:00:08.238Z,86.42
2023-05-04T23:02:36.118Z,85.98
2023-05-04T23:05:04.135Z,87.48
2023-05-04T23:07:31.292Z,86.55
2023-05-04T23:09:58.204Z,86.98
2023-05-04T23:12:27.137Z,88.74
2023-05-04T23:14:54.833Z,88.47
2023-05-04T23:17:22.231Z,88.39
2023-05-04T23:19:49.168Z,88.67
2023-05-04T23:22:16.168Z,89.47
2023-05-04T23:24:43.312Z,88.94
2023-05-04T23:27:11.431Z,88.64
2023-05-04T23:29:38.508Z,88.74
2023-05-04T23:32:06.069Z,90.34
2023-05-04T23:34:32.984Z,90.81
2023-05-04T23:36:59.815Z,91.10
2023-05-04T23:39:26.679Z,90.41
2023-05-04T23:41:54.316Z,92.06
2023-05-04T23:44:21.486Z,92.83
2023-05-04T23:46:48.401Z,93.16
2023-05-04T23:49:16.573Z,93.46
2023-05-04T23:51:43.640Z,92.53
2023-05-04T23:54:10.755Z,92.90
2023-05-04T23:56:37.797Z,92.67
2023-05-04T23:59:04.681Z,93.11
